sensor_id;sensor_type;location;lat;lon;timestamp;pressure;altitude;pressure_sealevel;temperature;humidity
79118;BME280;68523;51.336;-0.846;2023-09-19T00:00:00;99835.0;;;12.72;86.2
79118;BME280;68523;51.336;-0.846;2023-09-19T00:03:00;99835.0;;;12.74;85.9
79118;BME280;68523;51.336;-0.846;2023-09-19T00:06:00;99845.0;;;12.78;85.6
79118;BME280;68523;51.336;-0.846;2023-09-19T00:09:00;99835.0;;;12.81;85.7
79118;BME280;68523;51.336;-0.846;2023-09-19T00:12:00;99835.0;;;12.76;86.0
79118;BME280;68523;51.336;-0.846;2023-09-19T00:15:00;99835.0;;;12.77;85.8
79118;BME280;68523;51.336;-0.846;2023-09-19T00:18:00;99835.0;;;12.77;85.8
79118;BME280;68523;51.336;-0.846;2023-09-19T00:21:00;99835.0;;;12.86;85.3
79118;BME280;68523;51.336;-0.846;2023-09-19T00:24:00;99835.0;;;12.83;85.4
79118;BME280;68523;51.336;-0.846;2023-09-19T00:27:00;99835.0;;;12.79;85.8
79118;BME280;68523;51.336;-0.846;2023-09-19T00:30:00;99835.0;;;12.78;85.9
79118;BME280;68523;51.336;-0.846;2023-09-19T00:33:00;99835.0;;;12.74;85.9
79118;BME280;68523;51.336;-0.846;2023-09-19T00:36:00;99835.0;;;12.75;85.8
79118;BME280;68523;51.336;-0.846;2023-09-19T00:39:00;99835.0;;;12.75;85.7
79118;BME280;68523;51.336;-0.846;2023-09-19T00:42:00;99835.0;;;12.77;85.8
79118;BME280;68523;51.336;-0.846;2023-09-19T00:45:00;99835.0;;;12.74;85.8
79118;BME280;68523;51.336;-0.846;2023-09-19T00:48:01;99835.0;;;12.81;85.4
79118;BME280;68523;51.336;-0.846;2023-09-19T00:51:02;99845.0;;;12.86;85.1
79118;BME280;68523;51.336;-0.846;2023-09-19T00:54:01;99845.0;;;12.86;85.2
79118;BME280;68523;51.336;-0.846;2023-09-19T00:57:00;99845.0;;;12.88;85.0
79118;BME280;68523;51.336;-0.846;2023-09-19T01:00:01;99845.0;;;12.85;85.0
79118;BME280;68523;51.336;-0.846;2023-09-19T01:03:00;99845.0;;;12.82;84.9
79118;BME280;68523;51.336;-0.846;2023-09-19T01:06:01;99855.0;;;12.91;84.6
79118;BME280;68523;51.336;-0.846;2023-09-19T01:09:01;99845.0;;;12.88;84.8
79118;BME280;68523;51.336;-0.846;2023-09-19T01:12:03;99845.0;;;12.85;84.9
79118;BME280;68523;51.336;-0.846;2023-09-19T01:15:08;99835.0;;;12.88;84.8
79118;BME280;68523;51.336;-0.846;2023-09-19T01:18:04;99845.0;;;12.87;84.9
79118;BME280;68523;51.336;-0.846;2023-09-19T01:21:07;99845.0;;;12.93;84.7
79118;BME280;68523;51.336;-0.846;2023-09-19T01:24:16;99845.0;;;12.95;84.7
79118;BME280;68523;51.336;-0.846;2023-09-19T01:27:17;99845.0;;;12.94;84.7
79118;BME280;68523;51.336;-0.846;2023-09-19T01:30:08;99835.0;;;12.96;84.9
79118;BME280;68523;51.336;-0.846;2023-09-19T01:33:00;99835.0;;;12.96;84.9
79118;BME280;68523;51.336;-0.846;2023-09-19T01:36:00;99825.0;;;12.96;85.1
79118;BME280;68523;51.336;-0.846;2023-09-19T01:39:02;99825.0;;;12.93;85.1
79118;BME280;68523;51.336;-0.846;2023-09-19T01:42:05;99825.0;;;12.90;85.6
79118;BME280;68523;51.336;-0.846;2023-09-19T01:45:06;99825.0;;;12.87;85.5
79118;BME280;68523;51.336;-0.846;2023-09-19T01:48:08;99825.0;;;12.86;85.6
79118;BME280;68523;51.336;-0.846;2023-09-19T01:51:02;99825.0;;;12.84;85.6
79118;BME280;68523;51.336;-0.846;2023-09-19T01:54:03;99825.0;;;12.83;85.7
79118;BME280;68523;51.336;-0.846;2023-09-19T01:57:06;99825.0;;;12.89;85.4
79118;BME280;68523;51.336;-0.846;2023-09-19T02:00:03;99835.0;;;12.92;85.2
79118;BME280;68523;51.336;-0.846;2023-09-19T02:03:01;99835.0;;;12.91;85.4
79118;BME280;68523;51.336;-0.846;2023-09-19T02:06:00;99835.0;;;12.96;85.0
79118;BME280;68523;51.336;-0.846;2023-09-19T02:09:00;99845.0;;;13.06;84.6
79118;BME280;68523;51.336;-0.846;2023-09-19T02:12:00;99845.0;;;13.06;84.7
79118;BME280;68523;51.336;-0.846;2023-09-19T02:15:00;99845.0;;;13.05;84.7
79118;BME280;68523;51.336;-0.846;2023-09-19T02:18:00;99845.0;;;13.04;84.7
79118;BME280;68523;51.336;-0.846;2023-09-19T02:21:00;99845.0;;;13.03;84.8
79118;BME280;68523;51.336;-0.846;2023-09-19T02:24:02;99845.0;;;12.97;84.9
79118;BME280;68523;51.336;-0.846;2023-09-19T02:27:00;99855.0;;;13.03;84.8
79118;BME280;68523;51.336;-0.846;2023-09-19T02:30:00;99855.0;;;12.98;85.1
79118;BME280;68523;51.336;-0.846;2023-09-19T02:33:00;99845.0;;;12.92;85.4
79118;BME280;68523;51.336;-0.846;2023-09-19T02:36:00;99845.0;;;12.92;85.5
79118;BME280;68523;51.336;-0.846;2023-09-19T02:39:00;99845.0;;;12.87;85.6
79118;BME280;68523;51.336;-0.846;2023-09-19T02:42:01;99845.0;;;12.84;85.8
79118;BME280;68523;51.336;-0.846;2023-09-19T02:45:00;99845.0;;;12.86;85.7
79118;BME280;68523;51.336;-0.846;2023-09-19T02:48:00;99845.0;;;12.86;85.9
79118;BME280;68523;51.336;-0.846;2023-09-19T02:51:00;99835.0;;;12.77;86.3
79118;BME280;68523;51.336;-0.846;2023-09-19T02:54:00;99835.0;;;12.86;86.0
79118;BME280;68523;51.336;-0.846;2023-09-19T02:57:00;99835.0;;;12.90;85.8
79118;BME280;68523;51.336;-0.846;2023-09-19T03:00:00;99825.0;;;12.89;86.0
79118;BME280;68523;51.336;-0.846;2023-09-19T03:03:00;99825.0;;;12.86;86.1
79118;BME280;68523;51.336;-0.846;2023-09-19T03:06:00;99825.0;;;12.90;86.0
79118;BME280;68523;51.336;-0.846;2023-09-19T03:09:00;99825.0;;;12.87;86.2
79118;BME280;68523;51.336;-0.846;2023-09-19T03:12:00;99825.0;;;12.90;86.2
79118;BME280;68523;51.336;-0.846;2023-09-19T03:15:01;99825.0;;;12.88;86.5
79118;BME280;68523;51.336;-0.846;2023-09-19T03:18:00;99815.0;;;12.83;86.8
79118;BME280;68523;51.336;-0.846;2023-09-19T03:21:00;99815.0;;;12.86;86.9
79118;BME280;68523;51.336;-0.846;2023-09-19T03:24:00;99805.0;;;12.84;87.0
79118;BME280;68523;51.336;-0.846;2023-09-19T03:27:00;99805.0;;;12.85;87.3
79118;BME280;68523;51.336;-0.846;2023-09-19T03:30:00;99805.0;;;12.85;87.6
79118;BME280;68523;51.336;-0.846;2023-09-19T03:33:00;99805.0;;;12.89;87.6
79118;BME280;68523;51.336;-0.846;2023-09-19T03:36:01;99795.0;;;12.88;87.8
79118;BME280;68523;51.336;-0.846;2023-09-19T03:39:00;99785.0;;;12.89;88.0
79118;BME280;68523;51.336;-0.846;2023-09-19T03:42:00;99785.0;;;12.87;88.2
79118;BME280;68523;51.336;-0.846;2023-09-19T03:45:01;99775.0;;;12.91;88.3
79118;BME280;68523;51.336;-0.846;2023-09-19T03:48:00;99775.0;;;12.99;88.3
79118;BME280;68523;51.336;-0.846;2023-09-19T03:51:00;99765.0;;;13.00;88.5
79118;BME280;68523;51.336;-0.846;2023-09-19T03:54:00;99755.0;;;13.00;88.8
79118;BME280;68523;51.336;-0.846;2023-09-19T03:57:00;99755.0;;;13.11;88.7
79118;BME280;68523;51.336;-0.846;2023-09-19T04:00:00;99755.0;;;13.15;88.8
79118;BME280;68523;51.336;-0.846;2023-09-19T04:03:00;99755.0;;;13.15;88.8
79118;BME280;68523;51.336;-0.846;2023-09-19T04:06:00;99755.0;;;13.15;89.1
79118;BME280;68523;51.336;-0.846;2023-09-19T04:09:00;99745.0;;;13.15;89.2
79118;BME280;68523;51.336;-0.846;2023-09-19T04:12:00;99735.0;;;13.15;89.2
79118;BME280;68523;51.336;-0.846;2023-09-19T04:15:00;99725.0;;;13.18;89.2
79118;BME280;68523;51.336;-0.846;2023-09-19T04:18:00;99725.0;;;13.21;89.3
79118;BME280;68523;51.336;-0.846;2023-09-19T04:21:00;99715.0;;;13.19;89.6
79118;BME280;68523;51.336;-0.846;2023-09-19T04:24:00;99705.0;;;13.27;89.6
79118;BME280;68523;51.336;-0.846;2023-09-19T04:27:00;99715.0;;;13.34;89.5
79118;BME280;68523;51.336;-0.846;2023-09-19T04:30:00;99705.0;;;13.44;89.4
79118;BME280;68523;51.336;-0.846;2023-09-19T04:33:00;99705.0;;;13.53;89.2
79118;BME280;68523;51.336;-0.846;2023-09-19T04:36:00;99715.0;;;13.63;88.9
79118;BME280;68523;51.336;-0.846;2023-09-19T04:39:00;99715.0;;;13.74;88.7
79118;BME280;68523;51.336;-0.846;2023-09-19T04:42:00;99705.0;;;13.77;88.7
79118;BME280;68523;51.336;-0.846;2023-09-19T04:45:00;99715.0;;;13.85;88.5
79118;BME280;68523;51.336;-0.846;2023-09-19T04:48:00;99705.0;;;13.89;88.5
79118;BME280;68523;51.336;-0.846;2023-09-19T04:51:00;99705.0;;;13.98;88.4
79118;BME280;68523;51.336;-0.846;2023-09-19T04:54:00;99715.0;;;14.07;88.1
79118;BME280;68523;51.336;-0.846;2023-09-19T04:57:00;99715.0;;;14.11;88.1
79118;BME280;68523;51.336;-0.846;2023-09-19T05:00:00;99715.0;;;14.13;88.2
79118;BME280;68523;51.336;-0.846;2023-09-19T05:03:00;99715.0;;;14.20;88.2
79118;BME280;68523;51.336;-0.846;2023-09-19T05:06:00;99715.0;;;14.22;88.4
79118;BME280;68523;51.336;-0.846;2023-09-19T05:09:01;99715.0;;;14.27;88.4
79118;BME280;68523;51.336;-0.846;2023-09-19T05:12:00;99715.0;;;14.31;88.5
79118;BME280;68523;51.336;-0.846;2023-09-19T05:15:01;99715.0;;;14.39;88.3
79118;BME280;68523;51.336;-0.846;2023-09-19T05:18:00;99705.0;;;14.36;88.6
79118;BME280;68523;51.336;-0.846;2023-09-19T05:21:02;99705.0;;;14.43;88.5
79118;BME280;68523;51.336;-0.846;2023-09-19T05:24:00;99705.0;;;14.51;88.4
79118;BME280;68523;51.336;-0.846;2023-09-19T05:27:00;99715.0;;;14.52;88.4
79118;BME280;68523;51.336;-0.846;2023-09-19T05:30:00;99715.0;;;14.66;88.1
79118;BME280;68523;51.336;-0.846;2023-09-19T05:33:00;99705.0;;;14.69;87.9
79118;BME280;68523;51.336;-0.846;2023-09-19T05:36:00;99705.0;;;14.76;87.8
79118;BME280;68523;51.336;-0.846;2023-09-19T05:39:00;99695.0;;;14.80;87.7
79118;BME280;68523;51.336;-0.846;2023-09-19T05:42:00;99685.0;;;14.84;87.8
79118;BME280;68523;51.336;-0.846;2023-09-19T05:45:00;99685.0;;;14.79;88.1
79118;BME280;68523;51.336;-0.846;2023-09-19T05:48:08;99685.0;;;14.85;88.0
79118;BME280;68523;51.336;-0.846;2023-09-19T05:51:00;99685.0;;;14.87;88.1
79118;BME280;68523;51.336;-0.846;2023-09-19T05:54:00;99685.0;;;14.96;87.9
79118;BME280;68523;51.336;-0.846;2023-09-19T05:57:01;99685.0;;;14.98;88.2
79118;BME280;68523;51.336;-0.846;2023-09-19T06:00:01;99685.0;;;14.96;88.7
79118;BME280;68523;51.336;-0.846;2023-09-19T06:03:00;99675.0;;;14.94;89.3
79118;BME280;68523;51.336;-0.846;2023-09-19T06:06:01;99675.0;;;14.86;89.8
79118;BME280;68523;51.336;-0.846;2023-09-19T06:09:00;99675.0;;;14.85;89.9
79118;BME280;68523;51.336;-0.846;2023-09-19T06:12:00;99675.0;;;14.89;89.9
79118;BME280;68523;51.336;-0.846;2023-09-19T06:15:00;99665.0;;;14.96;89.8
79118;BME280;68523;51.336;-0.846;2023-09-19T06:18:00;99665.0;;;14.91;89.9
79118;BME280;68523;51.336;-0.846;2023-09-19T06:21:00;99665.0;;;14.96;89.8
79118;BME280;68523;51.336;-0.846;2023-09-19T06:24:00;99655.0;;;14.98;89.6
79118;BME280;68523;51.336;-0.846;2023-09-19T06:27:01;99655.0;;;15.03;89.4
79118;BME280;68523;51.336;-0.846;2023-09-19T06:30:00;99655.0;;;15.05;89.0
79118;BME280;68523;51.336;-0.846;2023-09-19T06:33:00;99665.0;;;15.13;88.2
79118;BME280;68523;51.336;-0.846;2023-09-19T06:36:02;99655.0;;;15.17;88.1
79118;BME280;68523;51.336;-0.846;2023-09-19T06:39:00;99655.0;;;15.15;88.4
79118;BME280;68523;51.336;-0.846;2023-09-19T06:42:00;99655.0;;;15.26;87.7
79118;BME280;68523;51.336;-0.846;2023-09-19T06:45:00;99655.0;;;15.25;87.8
79118;BME280;68523;51.336;-0.846;2023-09-19T06:48:00;99655.0;;;15.23;88.0
79118;BME280;68523;51.336;-0.846;2023-09-19T06:51:00;99645.0;;;15.22;88.1
79118;BME280;68523;51.336;-0.846;2023-09-19T06:54:01;99645.0;;;15.19;88.9
79118;BME280;68523;51.336;-0.846;2023-09-19T06:57:00;99635.0;;;15.15;89.3
79118;BME280;68523;51.336;-0.846;2023-09-19T07:00:00;99625.0;;;15.20;89.2
79118;BME280;68523;51.336;-0.846;2023-09-19T07:03:03;99615.0;;;15.26;88.7
79118;BME280;68523;51.336;-0.846;2023-09-19T07:06:00;99615.0;;;15.31;88.6
79118;BME280;68523;51.336;-0.846;2023-09-19T07:09:00;99615.0;;;15.35;88.4
79118;BME280;68523;51.336;-0.846;2023-09-19T07:12:00;99615.0;;;15.37;88.5
79118;BME280;68523;51.336;-0.846;2023-09-19T07:15:00;99615.0;;;15.40;88.4
79118;BME280;68523;51.336;-0.846;2023-09-19T07:18:00;99605.0;;;15.42;88.3
79118;BME280;68523;51.336;-0.846;2023-09-19T07:21:00;99605.0;;;15.50;88.2
79118;BME280;68523;51.336;-0.846;2023-09-19T07:24:00;99595.0;;;15.36;89.7
79118;BME280;68523;51.336;-0.846;2023-09-19T07:27:00;99595.0;;;15.18;91.3
79118;BME280;68523;51.336;-0.846;2023-09-19T07:30:00;99595.0;;;14.99;92.8
79118;BME280;68523;51.336;-0.846;2023-09-19T07:33:00;99595.0;;;14.85;93.9
79118;BME280;68523;51.336;-0.846;2023-09-19T07:36:00;99595.0;;;14.78;94.6
79118;BME280;68523;51.336;-0.846;2023-09-19T07:39:00;99605.0;;;14.72;95.3
79118;BME280;68523;51.336;-0.846;2023-09-19T07:42:00;99595.0;;;14.78;95.7
79118;BME280;68523;51.336;-0.846;2023-09-19T07:45:00;99595.0;;;14.79;95.9
79118;BME280;68523;51.336;-0.846;2023-09-19T07:48:00;99595.0;;;14.84;95.7
79118;BME280;68523;51.336;-0.846;2023-09-19T07:51:02;99595.0;;;14.93;95.4
79118;BME280;68523;51.336;-0.846;2023-09-19T07:54:00;99595.0;;;15.04;94.5
79118;BME280;68523;51.336;-0.846;2023-09-19T07:57:01;99595.0;;;15.23;93.8
79118;BME280;68523;51.336;-0.846;2023-09-19T08:00:00;99585.0;;;15.43;92.4
79118;BME280;68523;51.336;-0.846;2023-09-19T08:03:00;99595.0;;;15.68;91.7
79118;BME280;68523;51.336;-0.846;2023-09-19T08:06:01;99605.0;;;15.56;91.8
79118;BME280;68523;51.336;-0.846;2023-09-19T08:09:00;99605.0;;;15.63;91.6
79118;BME280;68523;51.336;-0.846;2023-09-19T08:12:00;99605.0;;;15.63;91.0
79118;BME280;68523;51.336;-0.846;2023-09-19T08:15:01;99605.0;;;15.82;90.3
79118;BME280;68523;51.336;-0.846;2023-09-19T08:18:00;99595.0;;;15.92;89.9
79118;BME280;68523;51.336;-0.846;2023-09-19T08:21:00;99585.0;;;15.95;88.9
79118;BME280;68523;51.336;-0.846;2023-09-19T08:24:00;99575.0;;;15.90;89.2
79118;BME280;68523;51.336;-0.846;2023-09-19T08:27:00;99565.0;;;15.84;90.6
79118;BME280;68523;51.336;-0.846;2023-09-19T08:30:00;99565.0;;;15.59;91.7
79118;BME280;68523;51.336;-0.846;2023-09-19T08:33:01;99575.0;;;15.47;92.6
79118;BME280;68523;51.336;-0.846;2023-09-19T08:36:00;99585.0;;;15.38;93.4
79118;BME280;68523;51.336;-0.846;2023-09-19T08:39:00;99595.0;;;15.39;93.9
79118;BME280;68523;51.336;-0.846;2023-09-19T08:42:01;99605.0;;;15.35;94.4
79118;BME280;68523;51.336;-0.846;2023-09-19T08:45:01;99615.0;;;15.25;95.1
79118;BME280;68523;51.336;-0.846;2023-09-19T08:48:10;99605.0;;;15.35;94.7
79118;BME280;68523;51.336;-0.846;2023-09-19T08:51:03;99605.0;;;15.38;95.2
79118;BME280;68523;51.336;-0.846;2023-09-19T08:54:03;99615.0;;;15.28;95.8
79118;BME280;68523;51.336;-0.846;2023-09-19T08:57:06;99605.0;;;15.31;95.5
79118;BME280;68523;51.336;-0.846;2023-09-19T09:00:01;99595.0;;;15.40;94.8
79118;BME280;68523;51.336;-0.846;2023-09-19T09:03:02;99605.0;;;15.77;93.1
79118;BME280;68523;51.336;-0.846;2023-09-19T09:06:01;99605.0;;;16.09;92.1
79118;BME280;68523;51.336;-0.846;2023-09-19T09:09:01;99615.0;;;16.06;91.2
79118;BME280;68523;51.336;-0.846;2023-09-19T09:12:00;99615.0;;;16.18;89.1
79118;BME280;68523;51.336;-0.846;2023-09-19T09:15:00;99615.0;;;16.32;87.8
79118;BME280;68523;51.336;-0.846;2023-09-19T09:18:02;99615.0;;;16.52;87.3
79118;BME280;68523;51.336;-0.846;2023-09-19T09:21:00;99615.0;;;16.56;85.7
79118;BME280;68523;51.336;-0.846;2023-09-19T09:27:03;99625.0;;;16.73;85.0
79118;BME280;68523;51.336;-0.846;2023-09-19T09:30:00;99615.0;;;16.77;84.2
79118;BME280;68523;51.336;-0.846;2023-09-19T09:33:11;99615.0;;;16.87;84.3
79118;BME280;68523;51.336;-0.846;2023-09-19T09:36:03;99615.0;;;16.82;84.5
79118;BME280;68523;51.336;-0.846;2023-09-19T09:39:00;99615.0;;;16.74;84.8
79118;BME280;68523;51.336;-0.846;2023-09-19T09:42:00;99615.0;;;16.79;85.3
79118;BME280;68523;51.336;-0.846;2023-09-19T09:45:12;99615.0;;;16.94;84.9
79118;BME280;68523;51.336;-0.846;2023-09-19T09:48:01;99615.0;;;16.87;85.7
79118;BME280;68523;51.336;-0.846;2023-09-19T09:51:00;99605.0;;;16.89;85.5
79118;BME280;68523;51.336;-0.846;2023-09-19T09:54:11;99605.0;;;16.90;85.6
79118;BME280;68523;51.336;-0.846;2023-09-19T09:57:01;99595.0;;;16.91;84.9
79118;BME280;68523;51.336;-0.846;2023-09-19T10:00:02;99595.0;;;16.92;85.0
79118;BME280;68523;51.336;-0.846;2023-09-19T10:03:00;99595.0;;;17.07;85.0
79118;BME280;68523;51.336;-0.846;2023-09-19T10:06:00;99595.0;;;17.18;84.4
79118;BME280;68523;51.336;-0.846;2023-09-19T10:09:02;99585.0;;;17.23;84.0
79118;BME280;68523;51.336;-0.846;2023-09-19T10:12:05;99585.0;;;17.46;83.6
79118;BME280;68523;51.336;-0.846;2023-09-19T10:15:02;99585.0;;;17.60;83.2
79118;BME280;68523;51.336;-0.846;2023-09-19T10:18:01;99595.0;;;17.46;83.8
79118;BME280;68523;51.336;-0.846;2023-09-19T10:21:01;99595.0;;;17.54;84.0
79118;BME280;68523;51.336;-0.846;2023-09-19T10:24:01;99595.0;;;17.23;84.4
79118;BME280;68523;51.336;-0.846;2023-09-19T10:27:00;99595.0;;;17.29;85.0
79118;BME280;68523;51.336;-0.846;2023-09-19T10:30:01;99595.0;;;17.32;85.0
79118;BME280;68523;51.336;-0.846;2023-09-19T10:33:02;99595.0;;;17.41;84.8
79118;BME280;68523;51.336;-0.846;2023-09-19T10:36:01;99585.0;;;17.37;84.5
79118;BME280;68523;51.336;-0.846;2023-09-19T10:39:02;99595.0;;;17.38;84.8
79118;BME280;68523;51.336;-0.846;2023-09-19T10:42:02;99595.0;;;17.29;85.2
79118;BME280;68523;51.336;-0.846;2023-09-19T10:45:01;99595.0;;;17.25;85.4
79118;BME280;68523;51.336;-0.846;2023-09-19T10:48:01;99595.0;;;17.19;85.5
79118;BME280;68523;51.336;-0.846;2023-09-19T10:51:04;99595.0;;;17.22;85.5
79118;BME280;68523;51.336;-0.846;2023-09-19T10:54:05;99595.0;;;17.23;85.8
79118;BME280;68523;51.336;-0.846;2023-09-19T10:57:01;99595.0;;;17.14;85.9
79118;BME280;68523;51.336;-0.846;2023-09-19T11:00:02;99595.0;;;17.16;86.1
79118;BME280;68523;51.336;-0.846;2023-09-19T11:03:19;99595.0;;;17.14;86.3
79118;BME280;68523;51.336;-0.846;2023-09-19T11:06:04;99595.0;;;17.12;86.5
79118;BME280;68523;51.336;-0.846;2023-09-19T11:09:01;99605.0;;;17.09;86.3
79118;BME280;68523;51.336;-0.846;2023-09-19T11:12:00;99595.0;;;17.10;86.8
79118;BME280;68523;51.336;-0.846;2023-09-19T11:15:01;99595.0;;;17.12;86.9
79118;BME280;68523;51.336;-0.846;2023-09-19T11:18:00;99595.0;;;17.12;86.8
79118;BME280;68523;51.336;-0.846;2023-09-19T11:27:12;99595.0;;;17.21;87.2
79118;BME280;68523;51.336;-0.846;2023-09-19T11:33:18;99595.0;;;17.10;87.7
79118;BME280;68523;51.336;-0.846;2023-09-19T11:36:03;99595.0;;;17.01;88.3
79118;BME280;68523;51.336;-0.846;2023-09-19T11:39:01;99595.0;;;16.95;88.8
79118;BME280;68523;51.336;-0.846;2023-09-19T11:42:00;99595.0;;;17.04;88.7
79118;BME280;68523;51.336;-0.846;2023-09-19T11:45:00;99585.0;;;17.02;88.8
79118;BME280;68523;51.336;-0.846;2023-09-19T11:48:01;99585.0;;;17.13;88.6
79118;BME280;68523;51.336;-0.846;2023-09-19T11:51:00;99575.0;;;17.18;88.5
79118;BME280;68523;51.336;-0.846;2023-09-19T11:54:03;99575.0;;;17.22;88.5
79118;BME280;68523;51.336;-0.846;2023-09-19T11:57:00;99575.0;;;17.28;88.2
79118;BME280;68523;51.336;-0.846;2023-09-19T12:00:01;99565.0;;;17.38;87.8
79118;BME280;68523;51.336;-0.846;2023-09-19T12:03:07;99575.0;;;17.48;87.7
79118;BME280;68523;51.336;-0.846;2023-09-19T12:06:00;99575.0;;;17.50;87.8
79118;BME280;68523;51.336;-0.846;2023-09-19T12:09:00;99565.0;;;17.51;87.9
79118;BME280;68523;51.336;-0.846;2023-09-19T12:12:00;99565.0;;;17.45;88.3
79118;BME280;68523;51.336;-0.846;2023-09-19T12:15:01;99565.0;;;17.35;88.8
79118;BME280;68523;51.336;-0.846;2023-09-19T12:18:00;99555.0;;;17.34;89.2
79118;BME280;68523;51.336;-0.846;2023-09-19T12:21:00;99555.0;;;17.28;89.5
79118;BME280;68523;51.336;-0.846;2023-09-19T12:24:05;99545.0;;;17.45;89.6
79118;BME280;68523;51.336;-0.846;2023-09-19T12:27:02;99545.0;;;17.41;89.4
79118;BME280;68523;51.336;-0.846;2023-09-19T12:30:01;99545.0;;;17.39;89.4
79118;BME280;68523;51.336;-0.846;2023-09-19T12:33:02;99545.0;;;17.38;89.3
79118;BME280;68523;51.336;-0.846;2023-09-19T12:36:00;99535.0;;;17.50;89.0
79118;BME280;68523;51.336;-0.846;2023-09-19T12:39:00;99545.0;;;17.50;89.0
79118;BME280;68523;51.336;-0.846;2023-09-19T12:42:02;99545.0;;;17.51;89.1
79118;BME280;68523;51.336;-0.846;2023-09-19T12:45:01;99545.0;;;17.44;89.1
79118;BME280;68523;51.336;-0.846;2023-09-19T12:48:18;99545.0;;;17.44;88.8
79118;BME280;68523;51.336;-0.846;2023-09-19T12:51:02;99545.0;;;17.51;88.7
79118;BME280;68523;51.336;-0.846;2023-09-19T12:54:00;99545.0;;;17.53;88.6
79118;BME280;68523;51.336;-0.846;2023-09-19T12:57:00;99545.0;;;17.66;88.5
79118;BME280;68523;51.336;-0.846;2023-09-19T13:00:01;99545.0;;;17.65;88.7
79118;BME280;68523;51.336;-0.846;2023-09-19T13:03:11;99545.0;;;17.79;88.1
79118;BME280;68523;51.336;-0.846;2023-09-19T13:06:02;99545.0;;;17.81;88.0
79118;BME280;68523;51.336;-0.846;2023-09-19T13:09:08;99555.0;;;17.80;88.2
79118;BME280;68523;51.336;-0.846;2023-09-19T13:12:01;99545.0;;;17.84;88.2
79118;BME280;68523;51.336;-0.846;2023-09-19T13:15:08;99545.0;;;17.82;88.2
79118;BME280;68523;51.336;-0.846;2023-09-19T13:18:11;99545.0;;;17.86;88.3
79118;BME280;68523;51.336;-0.846;2023-09-19T13:21:09;99555.0;;;17.77;88.5
79118;BME280;68523;51.336;-0.846;2023-09-19T13:24:18;99545.0;;;17.72;88.9
79118;BME280;68523;51.336;-0.846;2023-09-19T13:27:00;99545.0;;;17.61;89.3
79118;BME280;68523;51.336;-0.846;2023-09-19T13:30:00;99545.0;;;17.57;90.2
79118;BME280;68523;51.336;-0.846;2023-09-19T13:33:09;99545.0;;;17.57;90.3
79118;BME280;68523;51.336;-0.846;2023-09-19T13:36:01;99545.0;;;17.70;89.8
79118;BME280;68523;51.336;-0.846;2023-09-19T13:39:00;99535.0;;;17.80;89.6
79118;BME280;68523;51.336;-0.846;2023-09-19T13:42:00;99535.0;;;17.71;89.8
79118;BME280;68523;51.336;-0.846;2023-09-19T13:45:00;99535.0;;;17.73;89.8
79118;BME280;68523;51.336;-0.846;2023-09-19T13:48:00;99535.0;;;17.79;89.4
79118;BME280;68523;51.336;-0.846;2023-09-19T13:51:02;99535.0;;;17.94;89.1
79118;BME280;68523;51.336;-0.846;2023-09-19T13:54:00;99545.0;;;17.81;88.9
79118;BME280;68523;51.336;-0.846;2023-09-19T13:57:00;99545.0;;;17.79;88.9
79118;BME280;68523;51.336;-0.846;2023-09-19T14:00:00;99555.0;;;17.85;89.0
79118;BME280;68523;51.336;-0.846;2023-09-19T14:03:00;99555.0;;;17.81;89.0
79118;BME280;68523;51.336;-0.846;2023-09-19T14:06:00;99555.0;;;17.94;88.6
79118;BME280;68523;51.336;-0.846;2023-09-19T14:09:00;99565.0;;;17.92;88.5
79118;BME280;68523;51.336;-0.846;2023-09-19T14:12:00;99545.0;;;18.17;87.8
79118;BME280;68523;51.336;-0.846;2023-09-19T14:15:00;99545.0;;;18.17;87.8
79118;BME280;68523;51.336;-0.846;2023-09-19T14:18:00;99545.0;;;18.17;87.9
79118;BME280;68523;51.336;-0.846;2023-09-19T14:21:03;99555.0;;;18.10;88.0
79118;BME280;68523;51.336;-0.846;2023-09-19T14:24:00;99555.0;;;18.06;88.5
79118;BME280;68523;51.336;-0.846;2023-09-19T14:27:00;99555.0;;;18.03;89.2
79118;BME280;68523;51.336;-0.846;2023-09-19T14:30:00;99555.0;;;17.89;90.3
79118;BME280;68523;51.336;-0.846;2023-09-19T14:33:00;99555.0;;;17.72;91.2
79118;BME280;68523;51.336;-0.846;2023-09-19T14:36:02;99555.0;;;17.73;91.0
79118;BME280;68523;51.336;-0.846;2023-09-19T14:39:00;99545.0;;;17.85;90.9
79118;BME280;68523;51.336;-0.846;2023-09-19T14:42:00;99555.0;;;17.73;90.9
79118;BME280;68523;51.336;-0.846;2023-09-19T14:45:00;99545.0;;;17.79;90.9
79118;BME280;68523;51.336;-0.846;2023-09-19T14:48:00;99555.0;;;17.76;90.6
79118;BME280;68523;51.336;-0.846;2023-09-19T14:51:02;99545.0;;;17.82;90.6
79118;BME280;68523;51.336;-0.846;2023-09-19T14:54:00;99545.0;;;17.90;90.2
79118;BME280;68523;51.336;-0.846;2023-09-19T14:57:00;99545.0;;;17.90;90.1
79118;BME280;68523;51.336;-0.846;2023-09-19T15:00:00;99545.0;;;17.98;90.2
79118;BME280;68523;51.336;-0.846;2023-09-19T15:03:00;99555.0;;;17.70;91.2
79118;BME280;68523;51.336;-0.846;2023-09-19T15:06:01;99545.0;;;17.68;91.2
79118;BME280;68523;51.336;-0.846;2023-09-19T15:09:00;99545.0;;;17.69;91.2
79118;BME280;68523;51.336;-0.846;2023-09-19T15:12:00;99555.0;;;17.67;91.1
79118;BME280;68523;51.336;-0.846;2023-09-19T15:15:00;99565.0;;;17.75;90.7
79118;BME280;68523;51.336;-0.846;2023-09-19T15:18:00;99555.0;;;17.74;90.5
79118;BME280;68523;51.336;-0.846;2023-09-19T15:21:01;99555.0;;;17.86;90.2
79118;BME280;68523;51.336;-0.846;2023-09-19T15:24:00;99555.0;;;17.75;90.4
79118;BME280;68523;51.336;-0.846;2023-09-19T15:27:00;99555.0;;;17.79;90.4
79118;BME280;68523;51.336;-0.846;2023-09-19T15:30:00;99555.0;;;17.76;90.3
79118;BME280;68523;51.336;-0.846;2023-09-19T15:33:00;99555.0;;;17.84;89.8
79118;BME280;68523;51.336;-0.846;2023-09-19T15:36:02;99545.0;;;18.03;89.4
79118;BME280;68523;51.336;-0.846;2023-09-19T15:39:02;99545.0;;;18.09;89.1
79118;BME280;68523;51.336;-0.846;2023-09-19T15:42:00;99545.0;;;18.04;88.6
79118;BME280;68523;51.336;-0.846;2023-09-19T15:45:00;99545.0;;;18.00;88.4
79118;BME280;68523;51.336;-0.846;2023-09-19T15:48:00;99545.0;;;18.00;88.4
79118;BME280;68523;51.336;-0.846;2023-09-19T15:51:03;99545.0;;;17.99;87.9
79118;BME280;68523;51.336;-0.846;2023-09-19T15:54:02;99545.0;;;17.96;88.0
79118;BME280;68523;51.336;-0.846;2023-09-19T15:57:00;99545.0;;;17.93;87.3
79118;BME280;68523;51.336;-0.846;2023-09-19T16:00:00;99535.0;;;17.98;87.6
79118;BME280;68523;51.336;-0.846;2023-09-19T16:03:00;99535.0;;;17.95;87.3
79118;BME280;68523;51.336;-0.846;2023-09-19T16:06:00;99535.0;;;17.96;87.3
79118;BME280;68523;51.336;-0.846;2023-09-19T16:09:01;99535.0;;;18.00;87.3
79118;BME280;68523;51.336;-0.846;2023-09-19T16:12:00;99535.0;;;17.92;87.2
79118;BME280;68523;51.336;-0.846;2023-09-19T16:15:00;99545.0;;;17.95;87.1